sensor_id;sensor_type;location;lat;lon;timestamp;P1;durP1;ratioP1;P2;durP2;ratioP2
66212;SDS011;53015;50.046;8.238;2022-08-03T00:01:25;4.72;;;1.20;;
66212;SDS011;53015;50.046;8.238;2022-08-03T00:03:51;3.00;;;1.50;;
66212;SDS011;53015;50.046;8.238;2022-08-03T00:06:16;2.85;;;1.58;;
66212;SDS011;53015;50.046;8.238;2022-08-03T00:08:42;4.90;;;1.40;;
66212;SDS011;53015;50.046;8.238;2022-08-03T00:11:07;1.55;;;1.40;;
66212;SDS011;53015;50.046;8.238;2022-08-03T00:13:33;3.38;;;1.25;;
66212;SDS011;53015;50.046;8.238;2022-08-03T00:15:59;1.77;;;1.35;;
66212;SDS011;53015;50.046;8.238;2022-08-03T00:18:24;1.80;;;1.48;;
66212;SDS011;53015;50.046;8.238;2022-08-03T00:20:49;1.88;;;1.67;;
66212;SDS011;53015;50.046;8.238;2022-08-03T00:23:15;1.40;;;1.30;;
66212;SDS011;53015;50.046;8.238;2022-08-03T00:25:41;1.52;;;1.40;;
66212;SDS011;53015;50.046;8.238;2022-08-03T00:28:06;2.03;;;1.40;;
66212;SDS011;53015;50.046;8.238;2022-08-03T00:30:32;3.28;;;1.42;;
66212;SDS011;53015;50.046;8.238;2022-08-03T00:32:58;2.17;;;1.38;;
66212;SDS011;53015;50.046;8.238;2022-08-03T00:35:24;3.13;;;1.23;;
66212;SDS011;53015;50.046;8.238;2022-08-03T00:37:50;1.98;;;1.23;;
66212;SDS011;53015;50.046;8.238;2022-08-03T00:40:16;2.95;;;1.40;;
66212;SDS011;53015;50.046;8.238;2022-08-03T00:45:26;1.95;;;1.17;;
66212;SDS011;53015;50.046;8.238;2022-08-03T00:47:53;1.98;;;1.45;;
66212;SDS011;53015;50.046;8.238;2022-08-03T00:50:20;3.35;;;1.35;;
66212;SDS011;53015;50.046;8.238;2022-08-03T00:52:48;3.90;;;1.60;;
66212;SDS011;53015;50.046;8.238;2022-08-03T00:55:15;2.60;;;1.33;;
66212;SDS011;53015;50.046;8.238;2022-08-03T00:57:41;2.30;;;1.50;;
66212;SDS011;53015;50.046;8.238;2022-08-03T01:00:08;3.40;;;1.52;;
66212;SDS011;53015;50.046;8.238;2022-08-03T01:02:35;2.75;;;1.65;;
66212;SDS011;53015;50.046;8.238;2022-08-03T01:05:02;4.75;;;1.52;;
66212;SDS011;53015;50.046;8.238;2022-08-03T01:10:41;2.17;;;1.50;;
66212;SDS011;53015;50.046;8.238;2022-08-03T01:13:39;3.05;;;1.30;;
66212;SDS011;53015;50.046;8.238;2022-08-03T01:16:17;1.40;;;1.30;;
66212;SDS011;53015;50.046;8.238;2022-08-03T01:21:55;3.00;;;1.40;;
66212;SDS011;53015;50.046;8.238;2022-08-03T01:27:18;2.30;;;1.30;;
66212;SDS011;53015;50.046;8.238;2022-08-03T01:35:12;2.10;;;1.42;;
66212;SDS011;53015;50.046;8.238;2022-08-03T01:37:51;2.50;;;1.38;;
66212;SDS011;53015;50.046;8.238;2022-08-03T01:40:21;3.13;;;1.67;;
66212;SDS011;53015;50.046;8.238;2022-08-03T01:42:49;2.90;;;1.63;;
66212;SDS011;53015;50.046;8.238;2022-08-03T01:45:16;2.40;;;1.38;;
66212;SDS011;53015;50.046;8.238;2022-08-03T01:47:45;3.72;;;1.60;;
66212;SDS011;53015;50.046;8.238;2022-08-03T01:50:13;1.85;;;1.50;;
66212;SDS011;53015;50.046;8.238;2022-08-03T01:52:41;1.85;;;1.42;;
66212;SDS011;53015;50.046;8.238;2022-08-03T01:55:08;1.60;;;1.50;;
66212;SDS011;53015;50.046;8.238;2022-08-03T01:57:36;2.03;;;1.50;;
66212;SDS011;53015;50.046;8.238;2022-08-03T02:00:03;1.50;;;1.40;;
66212;SDS011;53015;50.046;8.238;2022-08-03T02:02:30;2.13;;;1.35;;
66212;SDS011;53015;50.046;8.238;2022-08-03T02:04:57;6.13;;;1.50;;
66212;SDS011;53015;50.046;8.238;2022-08-03T02:07:24;2.08;;;1.30;;
66212;SDS011;53015;50.046;8.238;2022-08-03T02:09:51;1.90;;;1.52;;
66212;SDS011;53015;50.046;8.238;2022-08-03T02:12:19;2.00;;;1.50;;
66212;SDS011;53015;50.046;8.238;2022-08-03T02:14:46;3.70;;;1.50;;
66212;SDS011;53015;50.046;8.238;2022-08-03T02:17:13;2.70;;;1.30;;
66212;SDS011;53015;50.046;8.238;2022-08-03T02:19:41;1.92;;;1.40;;
66212;SDS011;53015;50.046;8.238;2022-08-03T02:22:08;1.45;;;1.30;;
66212;SDS011;53015;50.046;8.238;2022-08-03T02:24:35;2.95;;;1.50;;
66212;SDS011;53015;50.046;8.238;2022-08-03T02:27:02;2.00;;;1.25;;
66212;SDS011;53015;50.046;8.238;2022-08-03T02:29:32;3.58;;;1.50;;
66212;SDS011;53015;50.046;8.238;2022-08-03T02:32:00;1.67;;;1.58;;
66212;SDS011;53015;50.046;8.238;2022-08-03T02:34:28;1.63;;;1.38;;
66212;SDS011;53015;50.046;8.238;2022-08-03T02:36:57;2.20;;;1.40;;
66212;SDS011;53015;50.046;8.238;2022-08-03T02:39:25;1.45;;;1.30;;
66212;SDS011;53015;50.046;8.238;2022-08-03T02:41:55;3.55;;;1.60;;
66212;SDS011;53015;50.046;8.238;2022-08-03T02:44:26;2.85;;;1.45;;
66212;SDS011;53015;50.046;8.238;2022-08-03T02:46:53;4.13;;;1.83;;
66212;SDS011;53015;50.046;8.238;2022-08-03T02:49:22;4.25;;;1.70;;
66212;SDS011;53015;50.046;8.238;2022-08-03T02:51:51;2.83;;;1.73;;
66212;SDS011;53015;50.046;8.238;2022-08-03T02:54:18;5.00;;;1.50;;
66212;SDS011;53015;50.046;8.238;2022-08-03T02:56:46;2.05;;;1.80;;
66212;SDS011;53015;50.046;8.238;2022-08-03T02:59:12;1.73;;;1.40;;
66212;SDS011;53015;50.046;8.238;2022-08-03T03:01:38;2.58;;;1.65;;
66212;SDS011;53015;50.046;8.238;2022-08-03T03:04:04;3.15;;;1.98;;
66212;SDS011;53015;50.046;8.238;2022-08-03T03:06:31;2.22;;;1.65;;
66212;SDS011;53015;50.046;8.238;2022-08-03T03:08:58;1.50;;;1.40;;
66212;SDS011;53015;50.046;8.238;2022-08-03T03:11:25;2.40;;;1.60;;
66212;SDS011;53015;50.046;8.238;2022-08-03T03:13:51;1.60;;;1.50;;
66212;SDS011;53015;50.046;8.238;2022-08-03T03:16:17;2.05;;;1.33;;
66212;SDS011;53015;50.046;8.238;2022-08-03T03:18:44;2.25;;;1.50;;
66212;SDS011;53015;50.046;8.238;2022-08-03T03:21:11;3.22;;;1.58;;
66212;SDS011;53015;50.046;8.238;2022-08-03T03:23:40;2.75;;;1.50;;
66212;SDS011;53015;50.046;8.238;2022-08-03T03:26:06;2.30;;;1.48;;
66212;SDS011;53015;50.046;8.238;2022-08-03T03:28:32;3.83;;;1.70;;
66212;SDS011;53015;50.046;8.238;2022-08-03T03:30:58;2.60;;;1.70;;
66212;SDS011;53015;50.046;8.238;2022-08-03T03:33:24;1.95;;;1.30;;
66212;SDS011;53015;50.046;8.238;2022-08-03T03:35:50;2.28;;;1.50;;
66212;SDS011;53015;50.046;8.238;2022-08-03T03:38:17;2.28;;;1.65;;
66212;SDS011;53015;50.046;8.238;2022-08-03T03:40:43;3.30;;;1.77;;
66212;SDS011;53015;50.046;8.238;2022-08-03T03:43:10;4.38;;;1.60;;
66212;SDS011;53015;50.046;8.238;2022-08-03T03:45:36;3.97;;;1.60;;
66212;SDS011;53015;50.046;8.238;2022-08-03T03:48:05;2.80;;;1.60;;
66212;SDS011;53015;50.046;8.238;2022-08-03T03:50:33;4.50;;;1.60;;
66212;SDS011;53015;50.046;8.238;2022-08-03T03:53:03;2.40;;;1.60;;
66212;SDS011;53015;50.046;8.238;2022-08-03T03:55:28;2.67;;;1.67;;
66212;SDS011;53015;50.046;8.238;2022-08-03T03:57:54;5.13;;;1.67;;
66212;SDS011;53015;50.046;8.238;2022-08-03T04:00:20;5.15;;;1.80;;
66212;SDS011;53015;50.046;8.238;2022-08-03T04:02:47;5.18;;;1.98;;
66212;SDS011;53015;50.046;8.238;2022-08-03T04:05:12;4.35;;;1.73;;
66212;SDS011;53015;50.046;8.238;2022-08-03T04:07:59;4.05;;;1.63;;
66212;SDS011;53015;50.046;8.238;2022-08-03T04:10:47;2.58;;;1.80;;
66212;SDS011;53015;50.046;8.238;2022-08-03T04:13:30;2.80;;;1.80;;
66212;SDS011;53015;50.046;8.238;2022-08-03T04:15:59;5.07;;;1.90;;
66212;SDS011;53015;50.046;8.238;2022-08-03T04:18:27;2.88;;;1.60;;
66212;SDS011;53015;50.046;8.238;2022-08-03T04:20:55;2.05;;;1.60;;
66212;SDS011;53015;50.046;8.238;2022-08-03T04:23:24;2.85;;;1.70;;
66212;SDS011;53015;50.046;8.238;2022-08-03T04:25:53;3.67;;;1.80;;
66212;SDS011;53015;50.046;8.238;2022-08-03T04:28:21;3.45;;;1.70;;
66212;SDS011;53015;50.046;8.238;2022-08-03T04:30:47;2.95;;;1.80;;
66212;SDS011;53015;50.046;8.238;2022-08-03T04:33:16;5.35;;;1.83;;
66212;SDS011;53015;50.046;8.238;2022-08-03T04:35:43;3.83;;;1.80;;
66212;SDS011;53015;50.046;8.238;2022-08-03T04:38:11;2.30;;;1.90;;
66212;SDS011;53015;50.046;8.238;2022-08-03T04:40:40;3.20;;;1.92;;
66212;SDS011;53015;50.046;8.238;2022-08-03T04:43:08;2.15;;;1.60;;
66212;SDS011;53015;50.046;8.238;2022-08-03T04:45:35;2.55;;;1.85;;
66212;SDS011;53015;50.046;8.238;2022-08-03T04:48:01;2.58;;;2.00;;
66212;SDS011;53015;50.046;8.238;2022-08-03T04:50:27;5.07;;;2.20;;
66212;SDS011;53015;50.046;8.238;2022-08-03T04:52:54;4.38;;;2.17;;
66212;SDS011;53015;50.046;8.238;2022-08-03T04:55:26;7.55;;;2.05;;
66212;SDS011;53015;50.046;8.238;2022-08-03T04:57:53;2.55;;;1.80;;
66212;SDS011;53015;50.046;8.238;2022-08-03T05:00:19;1.98;;;1.70;;
66212;SDS011;53015;50.046;8.238;2022-08-03T05:02:44;8.15;;;1.92;;
66212;SDS011;53015;50.046;8.238;2022-08-03T05:05:10;3.20;;;1.83;;
66212;SDS011;53015;50.046;8.238;2022-08-03T05:07:35;1.98;;;1.80;;
66212;SDS011;53015;50.046;8.238;2022-08-03T05:10:02;5.15;;;2.00;;
66212;SDS011;53015;50.046;8.238;2022-08-03T05:12:29;5.15;;;2.17;;
66212;SDS011;53015;50.046;8.238;2022-08-03T05:14:55;3.67;;;2.10;;
66212;SDS011;53015;50.046;8.238;2022-08-03T05:17:20;4.75;;;2.00;;
66212;SDS011;53015;50.046;8.238;2022-08-03T05:19:46;5.20;;;2.22;;
66212;SDS011;53015;50.046;8.238;2022-08-03T05:22:11;3.78;;;2.10;;
66212;SDS011;53015;50.046;8.238;2022-08-03T05:24:36;6.05;;;2.33;;
66212;SDS011;53015;50.046;8.238;2022-08-03T05:27:02;7.03;;;2.50;;
66212;SDS011;53015;50.046;8.238;2022-08-03T05:29:27;7.60;;;3.10;;
66212;SDS011;53015;50.046;8.238;2022-08-03T05:31:53;5.07;;;2.70;;
66212;SDS011;53015;50.046;8.238;2022-08-03T05:34:18;5.15;;;2.83;;
66212;SDS011;53015;50.046;8.238;2022-08-03T05:36:44;7.43;;;2.30;;
66212;SDS011;53015;50.046;8.238;2022-08-03T05:39:09;7.78;;;2.20;;
66212;SDS011;53015;50.046;8.238;2022-08-03T05:41:36;5.95;;;2.35;;
66212;SDS011;53015;50.046;8.238;2022-08-03T05:44:01;7.60;;;3.00;;
66212;SDS011;53015;50.046;8.238;2022-08-03T05:46:27;16.50;;;3.28;;
66212;SDS011;53015;50.046;8.238;2022-08-03T05:48:52;6.10;;;2.30;;
66212;SDS011;53015;50.046;8.238;2022-08-03T05:51:18;4.65;;;2.28;;
66212;SDS011;53015;50.046;8.238;2022-08-03T05:53:43;8.75;;;2.72;;
66212;SDS011;53015;50.046;8.238;2022-08-03T05:56:09;4.78;;;2.13;;
66212;SDS011;53015;50.046;8.238;2022-08-03T05:58:35;4.30;;;2.25;;
66212;SDS011;53015;50.046;8.238;2022-08-03T06:01:00;5.85;;;2.17;;
66212;SDS011;53015;50.046;8.238;2022-08-03T06:03:25;3.95;;;1.90;;
66212;SDS011;53015;50.046;8.238;2022-08-03T06:05:52;5.90;;;2.20;;
66212;SDS011;53015;50.046;8.238;2022-08-03T06:08:20;3.17;;;2.05;;
66212;SDS011;53015;50.046;8.238;2022-08-03T06:10:46;13.73;;;3.00;;
66212;SDS011;53015;50.046;8.238;2022-08-03T06:13:12;11.38;;;2.75;;
66212;SDS011;53015;50.046;8.238;2022-08-03T06:15:38;59.20;;;5.28;;
66212;SDS011;53015;50.046;8.238;2022-08-03T06:18:03;17.33;;;3.95;;
66212;SDS011;53015;50.046;8.238;2022-08-03T06:20:29;7.47;;;3.00;;
66212;SDS011;53015;50.046;8.238;2022-08-03T06:22:54;9.32;;;3.22;;
66212;SDS011;53015;50.046;8.238;2022-08-03T06:25:20;6.80;;;2.10;;
66212;SDS011;53015;50.046;8.238;2022-08-03T06:27:45;4.15;;;2.13;;
66212;SDS011;53015;50.046;8.238;2022-08-03T06:30:11;3.58;;;2.00;;
66212;SDS011;53015;50.046;8.238;2022-08-03T06:32:38;5.88;;;2.58;;
66212;SDS011;53015;50.046;8.238;2022-08-03T06:35:04;3.65;;;1.80;;
66212;SDS011;53015;50.046;8.238;2022-08-03T06:37:30;6.57;;;2.42;;
66212;SDS011;53015;50.046;8.238;2022-08-03T06:39:56;4.95;;;2.25;;
66212;SDS011;53015;50.046;8.238;2022-08-03T06:42:21;4.18;;;1.92;;
66212;SDS011;53015;50.046;8.238;2022-08-03T06:44:46;6.53;;;2.10;;
66212;SDS011;53015;50.046;8.238;2022-08-03T06:47:12;3.67;;;1.90;;
66212;SDS011;53015;50.046;8.238;2022-08-03T06:49:37;2.67;;;2.00;;
66212;SDS011;53015;50.046;8.238;2022-08-03T06:52:05;3.60;;;2.05;;
66212;SDS011;53015;50.046;8.238;2022-08-03T06:54:30;3.35;;;1.60;;
66212;SDS011;53015;50.046;8.238;2022-08-03T06:56:55;6.45;;;1.88;;
66212;SDS011;53015;50.046;8.238;2022-08-03T06:59:21;4.45;;;1.50;;
66212;SDS011;53015;50.046;8.238;2022-08-03T07:01:46;2.00;;;1.50;;
66212;SDS011;53015;50.046;8.238;2022-08-03T07:04:12;3.50;;;1.65;;
66212;SDS011;53015;50.046;8.238;2022-08-03T07:06:37;3.33;;;1.70;;
66212;SDS011;53015;50.046;8.238;2022-08-03T07:09:03;2.75;;;1.63;;
66212;SDS011;53015;50.046;8.238;2022-08-03T07:11:28;4.25;;;1.98;;
66212;SDS011;53015;50.046;8.238;2022-08-03T07:13:54;3.85;;;1.67;;
66212;SDS011;53015;50.046;8.238;2022-08-03T07:16:20;5.15;;;1.90;;
66212;SDS011;53015;50.046;8.238;2022-08-03T07:18:45;4.18;;;2.50;;
66212;SDS011;53015;50.046;8.238;2022-08-03T07:21:11;5.53;;;2.00;;
66212;SDS011;53015;50.046;8.238;2022-08-03T07:23:36;4.40;;;1.98;;
66212;SDS011;53015;50.046;8.238;2022-08-03T07:26:02;4.85;;;1.70;;
66212;SDS011;53015;50.046;8.238;2022-08-03T07:28:28;2.88;;;1.92;;
66212;SDS011;53015;50.046;8.238;2022-08-03T07:30:53;4.85;;;1.65;;
66212;SDS011;53015;50.046;8.238;2022-08-03T07:33:19;5.15;;;1.77;;
66212;SDS011;53015;50.046;8.238;2022-08-03T07:35:44;3.13;;;1.60;;
66212;SDS011;53015;50.046;8.238;2022-08-03T07:38:10;3.63;;;1.55;;
66212;SDS011;53015;50.046;8.238;2022-08-03T07:40:36;2.67;;;1.50;;
66212;SDS011;53015;50.046;8.238;2022-08-03T07:43:01;5.95;;;1.60;;
66212;SDS011;53015;50.046;8.238;2022-08-03T07:45:28;3.83;;;1.70;;
66212;SDS011;53015;50.046;8.238;2022-08-03T07:47:54;2.55;;;1.70;;
66212;SDS011;53015;50.046;8.238;2022-08-03T07:50:19;5.00;;;1.75;;
66212;SDS011;53015;50.046;8.238;2022-08-03T07:52:45;4.93;;;1.63;;
66212;SDS011;53015;50.046;8.238;2022-08-03T07:55:14;7.40;;;2.00;;
66212;SDS011;53015;50.046;8.238;2022-08-03T07:57:40;5.88;;;2.25;;
66212;SDS011;53015;50.046;8.238;2022-08-03T08:00:10;6.78;;;1.88;;
66212;SDS011;53015;50.046;8.238;2022-08-03T08:02:38;4.95;;;1.75;;
66212;SDS011;53015;50.046;8.238;2022-08-03T08:05:04;5.82;;;1.83;;
66212;SDS011;53015;50.046;8.238;2022-08-03T08:07:30;5.22;;;1.70;;
66212;SDS011;53015;50.046;8.238;2022-08-03T08:09:56;7.90;;;1.88;;
66212;SDS011;53015;50.046;8.238;2022-08-03T08:12:21;8.60;;;1.67;;
66212;SDS011;53015;50.046;8.238;2022-08-03T08:14:46;2.53;;;1.88;;
66212;SDS011;53015;50.046;8.238;2022-08-03T08:17:12;3.83;;;1.73;;
66212;SDS011;53015;50.046;8.238;2022-08-03T08:19:38;5.93;;;1.80;;
66212;SDS011;53015;50.046;8.238;2022-08-03T08:22:04;4.72;;;1.58;;
66212;SDS011;53015;50.046;8.238;2022-08-03T08:24:30;2.58;;;1.52;;
66212;SDS011;53015;50.046;8.238;2022-08-03T08:26:56;8.45;;;1.73;;
66212;SDS011;53015;50.046;8.238;2022-08-03T08:29:21;2.15;;;1.48;;
66212;SDS011;53015;50.046;8.238;2022-08-03T08:31:47;4.70;;;2.17;;
66212;SDS011;53015;50.046;8.238;2022-08-03T08:34:14;4.05;;;1.83;;
66212;SDS011;53015;50.046;8.238;2022-08-03T08:36:40;2.50;;;1.33;;
66212;SDS011;53015;50.046;8.238;2022-08-03T08:39:05;2.95;;;1.50;;
66212;SDS011;53015;50.046;8.238;2022-08-03T08:41:31;1.77;;;1.48;;
66212;SDS011;53015;50.046;8.238;2022-08-03T08:43:58;3.33;;;1.52;;
66212;SDS011;53015;50.046;8.238;2022-08-03T08:46:24;2.55;;;1.50;;
66212;SDS011;53015;50.046;8.238;2022-08-03T08:48:50;1.80;;;1.70;;
66212;SDS011;53015;50.046;8.238;2022-08-03T08:51:18;3.03;;;1.38;;
66212;SDS011;53015;50.046;8.238;2022-08-03T08:53:46;6.25;;;1.90;;
66212;SDS011;53015;50.046;8.238;2022-08-03T08:56:15;3.63;;;1.38;;
66212;SDS011;53015;50.046;8.238;2022-08-03T08:58:46;2.17;;;1.52;;
66212;SDS011;53015;50.046;8.238;2022-08-03T09:01:18;4.20;;;1.90;;
66212;SDS011;53015;50.046;8.238;2022-08-03T09:03:44;3.72;;;1.75;;
66212;SDS011;53015;50.046;8.238;2022-08-03T09:06:10;10.10;;;2.03;;
66212;SDS011;53015;50.046;8.238;2022-08-03T09:08:35;4.90;;;1.70;;
66212;SDS011;53015;50.046;8.238;2022-08-03T09:11:01;4.75;;;1.70;;
66212;SDS011;53015;50.046;8.238;2022-08-03T09:13:26;3.05;;;1.85;;
66212;SDS011;53015;50.046;8.238;2022-08-03T09:16:12;3.35;;;1.67;;
66212;SDS011;53015;50.046;8.238;2022-08-03T09:18:38;3.13;;;1.83;;
66212;SDS011;53015;50.046;8.238;2022-08-03T09:21:24;3.05;;;1.60;;
66212;SDS011;53015;50.046;8.238;2022-08-03T09:23:55;2.42;;;1.50;;
66212;SDS011;53015;50.046;8.238;2022-08-03T09:28:57;1.80;;;1.45;;
66212;SDS011;53015;50.046;8.238;2022-08-03T09:31:58;3.83;;;1.55;;
66212;SDS011;53015;50.046;8.238;2022-08-03T09:34:24;2.80;;;1.48;;
66212;SDS011;53015;50.046;8.238;2022-08-03T09:36:52;3.30;;;1.50;;
66212;SDS011;53015;50.046;8.238;2022-08-03T09:39:18;7.13;;;1.80;;
66212;SDS011;53015;50.046;8.238;2022-08-03T09:41:47;3.60;;;1.70;;
66212;SDS011;53015;50.046;8.238;2022-08-03T09:44:34;3.87;;;1.53;;
66212;SDS011;53015;50.046;8.238;2022-08-03T09:47:00;2.38;;;1.40;;
66212;SDS011;53015;50.046;8.238;2022-08-03T09:49:26;2.63;;;1.58;;
66212;SDS011;53015;50.046;8.238;2022-08-03T09:51:52;4.20;;;1.52;;
66212;SDS011;53015;50.046;8.238;2022-08-03T09:54:25;2.13;;;1.35;;
66212;SDS011;53015;50.046;8.238;2022-08-03T09:56:51;5.07;;;1.80;;
66212;SDS011;53015;50.046;8.238;2022-08-03T09:59:24;2.63;;;1.55;;
66212;SDS011;53015;50.046;8.238;2022-08-03T10:01:52;4.00;;;1.60;;
66212;SDS011;53015;50.046;8.238;2022-08-03T10:04:18;3.47;;;1.70;;
66212;SDS011;53015;50.046;8.238;2022-08-03T10:06:45;7.70;;;1.77;;
66212;SDS011;53015;50.046;8.238;2022-08-03T10:09:25;1.85;;;1.60;;
66212;SDS011;53015;50.046;8.238;2022-08-03T10:11:51;2.08;;;1.42;;
66212;SDS011;53015;50.046;8.238;2022-08-03T10:14:16;2.55;;;1.40;;
66212;SDS011;53015;50.046;8.238;2022-08-03T10:16:46;4.40;;;1.58;;
66212;SDS011;53015;50.046;8.238;2022-08-03T10:19:12;4.65;;;1.50;;
66212;SDS011;53015;50.046;8.238;2022-08-03T10:21:39;3.47;;;1.50;;
66212;SDS011;53015;50.046;8.238;2022-08-03T10:24:10;5.22;;;1.60;;
66212;SDS011;53015;50.046;8.238;2022-08-03T10:26:38;4.32;;;1.60;;
66212;SDS011;53015;50.046;8.238;2022-08-03T10:29:08;1.75;;;1.42;;
66212;SDS011;53015;50.046;8.238;2022-08-03T10:31:43;5.78;;;1.50;;
66212;SDS011;53015;50.046;8.238;2022-08-03T10:34:14;6.88;;;1.40;;
66212;SDS011;53015;50.046;8.238;2022-08-03T10:36:43;2.58;;;1.20;;
66212;SDS011;53015;50.046;8.238;2022-08-03T10:39:10;5.72;;;1.63;;
66212;SDS011;53015;50.046;8.238;2022-08-03T10:41:38;4.95;;;1.40;;
66212;SDS011;53015;50.046;8.238;2022-08-03T10:44:10;2.17;;;1.33;;
66212;SDS011;53015;50.046;8.238;2022-08-03T10:46:39;4.68;;;1.45;;
66212;SDS011;53015;50.046;8.238;2022-08-03T10:49:07;3.42;;;1.55;;
66212;SDS011;53015;50.046;8.238;2022-08-03T10:51:36;1.80;;;1.55;;
66212;SDS011;53015;50.046;8.238;2022-08-03T10:54:02;2.13;;;1.38;;
66212;SDS011;53015;50.046;8.238;2022-08-03T10:59:14;3.25;;;1.48;;
66212;SDS011;53015;50.046;8.238;2022-08-03T11:01:53;2.17;;;1.50;;
66212;SDS011;53015;50.046;8.238;2022-08-03T11:04:20;2.22;;;1.55;;
66212;SDS011;53015;50.046;8.238;2022-08-03T11:06:54;3.70;;;1.52;;
66212;SDS011;53015;50.046;8.238;2022-08-03T11:09:46;7.07;;;1.73;;
66212;SDS011;53015;50.046;8.238;2022-08-03T11:14:50;2.65;;;1.70;;
66212;SDS011;53015;50.046;8.238;2022-08-03T11:17:17;2.53;;;1.40;;
66212;SDS011;53015;50.046;8.238;2022-08-03T11:19:44;7.88;;;1.63;;
66212;SDS011;53015;50.046;8.238;2022-08-03T11:22:11;4.78;;;1.63;;
66212;SDS011;53015;50.046;8.238;2022-08-03T11:29:53;2.53;;;1.75;;
66212;SDS011;53015;50.046;8.238;2022-08-03T11:35:14;7.53;;;1.30;;
66212;SDS011;53015;50.046;8.238;2022-08-03T11:46:04;3.35;;;1.42;;
66212;SDS011;53015;50.046;8.238;2022-08-03T11:48:35;2.85;;;1.40;;
66212;SDS011;53015;50.046;8.238;2022-08-03T11:51:06;1.98;;;1.50;;
66212;SDS011;53015;50.046;8.238;2022-08-03T11:53:43;1.35;;;1.23;;
66212;SDS011;53015;50.046;8.238;2022-08-03T11:56:11;6.15;;;1.67;;
66212;SDS011;53015;50.046;8.238;2022-08-03T11:58:37;4.38;;;1.50;;
66212;SDS011;53015;50.046;8.238;2022-08-03T12:01:11;4.53;;;1.30;;
66212;SDS011;53015;50.046;8.238;2022-08-03T12:03:36;2.92;;;1.50;;
66212;SDS011;53015;50.046;8.238;2022-08-03T12:06:02;1.63;;;1.45;;
66212;SDS011;53015;50.046;8.238;2022-08-03T12:08:33;3.92;;;1.40;;
66212;SDS011;53015;50.046;8.238;2022-08-03T12:11:00;6.13;;;1.67;;
66212;SDS011;53015;50.046;8.238;2022-08-03T12:13:36;2.03;;;1.60;;
66212;SDS011;53015;50.046;8.238;2022-08-03T12:16:04;3.67;;;1.48;;
66212;SDS011;53015;50.046;8.238;2022-08-03T12:18:30;2.53;;;1.60;;
66212;SDS011;53015;50.046;8.238;2022-08-03T12:21:06;1.35;;;1.23;;
66212;SDS011;53015;50.046;8.238;2022-08-03T12:23:33;1.17;;;1.10;;
66212;SDS011;53015;50.046;8.238;2022-08-03T12:26:03;2.15;;;1.30;;
66212;SDS011;53015;50.046;8.238;2022-08-03T12:28:30;4.45;;;1.40;;
66212;SDS011;53015;50.046;8.238;2022-08-03T12:30:59;1.45;;;1.35;;
66212;SDS011;53015;50.046;8.238;2022-08-03T12:33:26;2.83;;;1.40;;
66212;SDS011;53015;50.046;8.238;2022-08-03T12:38:32;1.60;;;1.10;;
66212;SDS011;53015;50.046;8.238;2022-08-03T12:41:09;3.22;;;1.50;;
66212;SDS011;53015;50.046;8.238;2022-08-03T12:43:47;1.40;;;1.30;;
66212;SDS011;53015;50.046;8.238;2022-08-03T12:46:14;3.75;;;1.60;;
66212;SDS011;53015;50.046;8.238;2022-08-03T12:51:25;2.17;;;1.20;;
66212;SDS011;53015;50.046;8.238;2022-08-03T12:53:52;3.45;;;1.30;;
66212;SDS011;53015;50.046;8.238;2022-08-03T12:56:18;1.75;;;1.42;;
66212;SDS011;53015;50.046;8.238;2022-08-03T12:58:44;5.38;;;1.70;;
66212;SDS011;53015;50.046;8.238;2022-08-03T13:01:11;1.80;;;1.48;;
66212;SDS011;53015;50.046;8.238;2022-08-03T13:03:41;2.88;;;1.70;;
66212;SDS011;53015;50.046;8.238;2022-08-03T13:06:13;2.53;;;1.50;;
66212;SDS011;53015;50.046;8.238;2022-08-03T13:08:39;1.55;;;1.40;;
66212;SDS011;53015;50.046;8.238;2022-08-03T13:11:18;5.80;;;1.50;;
66212;SDS011;53015;50.046;8.238;2022-08-03T13:13:43;3.08;;;1.60;;
66212;SDS011;53015;50.046;8.238;2022-08-03T13:16:09;1.50;;;1.40;;
66212;SDS011;53015;50.046;8.238;2022-08-03T13:18:35;2.40;;;1.40;;
66212;SDS011;53015;50.046;8.238;2022-08-03T13:21:00;1.58;;;1.30;;
66212;SDS011;53015;50.046;8.238;2022-08-03T13:23:26;2.25;;;1.40;;
66212;SDS011;53015;50.046;8.238;2022-08-03T13:25:51;4.68;;;1.50;;
66212;SDS011;53015;50.046;8.238;2022-08-03T13:28:17;2.13;;;1.27;;
66212;SDS011;53015;50.046;8.238;2022-08-03T13:30:42;4.50;;;1.50;;
66212;SDS011;53015;50.046;8.238;2022-08-03T13:33:08;5.43;;;1.40;;
66212;SDS011;53015;50.046;8.238;2022-08-03T13:35:34;3.20;;;1.40;;
66212;SDS011;53015;50.046;8.238;2022-08-03T13:38:00;2.42;;;1.27;;
66212;SDS011;53015;50.046;8.238;2022-08-03T13:40:28;3.13;;;1.20;;
66212;SDS011;53015;50.046;8.238;2022-08-03T13:42:56;2.60;;;1.45;;
66212;SDS011;53015;50.046;8.238;2022-08-03T13:45:22;6.15;;;1.50;;
66212;SDS011;53015;50.046;8.238;2022-08-03T13:47:48;2.47;;;1.50;;
66212;SDS011;53015;50.046;8.238;2022-08-03T13:50:14;1.40;;;1.30;;
66212;SDS011;53015;50.046;8.238;2022-08-03T13:52:39;3.22;;;1.70;;
66212;SDS011;53015;50.046;8.238;2022-08-03T13:55:05;5.47;;;1.50;;
66212;SDS011;53015;50.046;8.238;2022-08-03T13:57:32;6.65;;;1.52;;
66212;SDS011;53015;50.046;8.238;2022-08-03T13:59:59;2.33;;;1.48;;
66212;SDS011;53015;50.046;8.238;2022-08-03T14:02:25;3.40;;;1.38;;
66212;SDS011;53015;50.046;8.238;2022-08-03T14:04:50;1.83;;;1.25;;
66212;SDS011;53015;50.046;8.238;2022-08-03T14:07:15;1.25;;;1.15;;
66212;SDS011;53015;50.046;8.238;2022-08-03T14:09:41;1.75;;;1.30;;
66212;SDS011;53015;50.046;8.238;2022-08-03T14:12:06;1.92;;;1.40;;
66212;SDS011;53015;50.046;8.238;2022-08-03T14:14:32;2.47;;;1.25;;
66212;SDS011;53015;50.046;8.238;2022-08-03T14:16:57;1.60;;;1.50;;
66212;SDS011;53015;50.046;8.238;2022-08-03T14:19:22;2.55;;;1.20;;
66212;SDS011;53015;50.046;8.238;2022-08-03T14:21:48;1.60;;;1.35;;
66212;SDS011;53015;50.046;8.238;2022-08-03T14:24:13;1.30;;;1.20;;
66212;SDS011;53015;50.046;8.238;2022-08-03T14:26:38;3.75;;;1.17;;
66212;SDS011;53015;50.046;8.238;2022-08-03T14:29:04;2.55;;;1.30;;
66212;SDS011;53015;50.046;8.238;2022-08-03T14:31:29;4.72;;;1.23;;
66212;SDS011;53015;50.046;8.238;2022-08-03T14:33:55;1.90;;;1.20;;
66212;SDS011;53015;50.046;8.238;2022-08-03T14:36:20;2.47;;;1.20;;
66212;SDS011;53015;50.046;8.238;2022-08-03T14:38:46;4.53;;;1.50;;
66212;SDS011;53015;50.046;8.238;2022-08-03T14:41:11;3.42;;;1.30;;
66212;SDS011;53015;50.046;8.238;2022-08-03T14:43:36;2.40;;;1.13;;
66212;SDS011;53015;50.046;8.238;2022-08-03T14:46:02;2.65;;;1.25;;
66212;SDS011;53015;50.046;8.238;2022-08-03T14:48:27;2.55;;;1.40;;
66212;SDS011;53015;50.046;8.238;2022-08-03T14:50:53;3.70;;;1.15;;
66212;SDS011;53015;50.046;8.238;2022-08-03T14:53:19;1.90;;;1.27;;
66212;SDS011;53015;50.046;8.238;2022-08-03T14:55:45;2.10;;;1.10;;
66212;SDS011;53015;50.046;8.238;2022-08-03T14:58:13;1.65;;;1.00;;
66212;SDS011;53015;50.046;8.238;2022-08-03T15:00:38;1.95;;;1.08;;
66212;SDS011;53015;50.046;8.238;2022-08-03T15:03:04;1.95;;;1.00;;
66212;SDS011;53015;50.046;8.238;2022-08-03T15:05:29;1.83;;;1.20;;
66212;SDS011;53015;50.046;8.238;2022-08-03T15:07:55;1.92;;;1.20;;
66212;SDS011;53015;50.046;8.238;2022-08-03T15:10:21;2.03;;;1.20;;
66212;SDS011;53015;50.046;8.238;2022-08-03T15:12:46;1.83;;;1.10;;
66212;SDS011;53015;50.046;8.238;2022-08-03T15:15:12;1.67;;;1.10;;
66212;SDS011;53015;50.046;8.238;2022-08-03T15:17:37;1.52;;;1.20;;
66212;SDS011;53015;50.046;8.238;2022-08-03T15:20:03;3.13;;;1.13;;
66212;SDS011;53015;50.046;8.238;2022-08-03T15:22:29;3.92;;;1.25;;
66212;SDS011;53015;50.046;8.238;2022-08-03T15:24:55;1.60;;;1.10;;
66212;SDS011;53015;50.046;8.238;2022-08-03T15:27:21;2.25;;;1.30;;
66212;SDS011;53015;50.046;8.238;2022-08-03T15:29:47;1.30;;;1.20;;
66212;SDS011;53015;50.046;8.238;2022-08-03T15:32:12;2.42;;;1.15;;
66212;SDS011;53015;50.046;8.238;2022-08-03T15:34:37;1.00;;;1.00;;
66212;SDS011;53015;50.046;8.238;2022-08-03T15:37:03;2.35;;;1.30;;